Terminal Aerodrome Forecast
Issued by NWS

Home | Current Version | Previous Version | Text Only | Print | Product List | Glossary On
Versions: 1 2 3 4 5 6 7 8 9 10 11 12 13 14 15 16 17
000
FTUS41 KBOX 251741
TAFBED
TAF
KBED 251741Z 2518/2618 05012G20KT P6SM -SHRA SCT008 OVC015
     FM252100 07010G21KT 3SM -SHRA BR OVC008
     FM260100 06010KT 2SM SHRA BR OVC007
     FM260700 06008KT 1 1/2SM -SHRA BR OVC003
     FM261200 05007KT 2SM -SHRA BR OVC008
     FM261600 08005KT 3SM -SHRA BR OVC003=

USA.gov is the U.S. government's official web portal to all federal, state and local government web resources and services.